Lima, OH

1:07 PM EST on November 24, 2014 (GMT -0500)
Findlay | Change Station
CLOSE
Current Station
Airport
Location: Findlay,
Elevation: 810 ft
Nearby Weather Stations

Elev 810 ft 41.01 °N, 83.67 °W | Updated 14 minutes ago

Overcast
Overcast
47 °F
Feels Like 47 °F
N
32
Wind Variable Wind from WSW
Gusts 48 mph

Today
High -- | Low -- °F
--% Chance of Precip.
Yesterday
High -- | Low -- °F
Precip. -- in
7:33 AM 5:12 PM
Waxing Crescent, 6% visible
Pressure 29.35 in
Visibility 10.0 miles
Clouds Mostly Cloudy 1600 ft
Overcast 2200 ft
Dew Point 41 °F
Humidity 80%
Rainfall 0.34 in
Snow Depth Not available.
UV 1 out of 12
Pollen .10 out of 12
Air Quality Not available.
Flu Activity Not available.
METAR KFDY 241753Z AUTO 24028G42KT 10SM BKN016 OVC022 08/05 A2936 RMK AO2 PK WND 24048/1715 RAB00E17 PRESRR SLP937 P0002 60029 T00830050 10161 20083 53049

More Conditions Fewer Conditions

Pressure 29.35 in
Visibility 10.0 miles
Clouds Mostly Cloudy 1600 ft
Overcast 2200 ft
Dew Point 41 °F
Humidity 80%
Rainfall 0.34 in
Snow Depth Not available.
UV 1 out of 12
Pollen .10 out of 12
Air Quality Not available.
Flu Activity Not available.
METAR KFDY 241753Z AUTO 24028G42KT 10SM BKN016 OVC022 08/05 A2936 RMK AO2 PK WND 24048/1715 RAB00E17 PRESRR SLP937 P0002 60029 T00830050 10161 20083 53049

More Conditions Fewer Conditions

10-Day Weather Forecast

Almanac

Astronomy

Nov. 24, 2014 Rise Set
Actual Time
Civil Twilight
Nautical Twilight
Astronomical Twilight
Moon
Length of Visible Light
Length of Day
Tomorrow will be .
, % of the Moon is Illuminated

Today's Extremes

State Highs State Lows

Community

WunderPhotos

Upload Photos

1,773,381 photos uploaded!

WunderBlogs® & News

Nearby

Air Quality

  Air Quality AQ Index Pollutant
Not available.

Snow Depth

Station Depth Elevation

Earthquake Activity

City Distance Mag. Time & Date
Minimum magnitude displayed is 2.5.

Coastal Water Temperatures

Place Temperature

Nearby Weather Stations